createdAt,value
2018-03-23T00:00:07.229Z,11.06
2018-03-23T00:00:47.584Z,11.2
2018-03-23T00:01:28.049Z,11.05
2018-03-23T00:02:08.407Z,11.12
2018-03-23T00:02:48.867Z,11.11
2018-03-23T00:03:29.202Z,11.27
2018-03-23T00:04:09.683Z,11.19
2018-03-23T00:04:50.073Z,11.17
2018-03-23T00:05:30.361Z,11.16
2018-03-23T00:06:10.816Z,11.19
2018-03-23T00:06:51.222Z,11.09
2018-03-23T00:07:31.573Z,11.06
2018-03-23T00:08:11.967Z,11.12
2018-03-23T00:08:52.368Z,11.11
2018-03-23T00:09:32.755Z,11.12
2018-03-23T00:10:13.183Z,11.19
2018-03-23T00:10:53.500Z,11.16
2018-03-23T00:11:33.905Z,11.13
2018-03-23T00:12:14.323Z,11.19
2018-03-23T00:12:54.721Z,11.16
2018-03-23T00:13:35.116Z,11.23
2018-03-23T00:14:15.496Z,11.2
2018-03-23T00:14:55.902Z,11.17
2018-03-23T00:15:36.269Z,11.16
2018-03-23T00:16:16.644Z,11.27
2018-03-23T00:16:57.037Z,11.3
2018-03-23T00:17:37.432Z,11.28
2018-03-23T00:18:17.863Z,11.3
2018-03-23T00:18:58.251Z,11.38
2018-03-23T00:19:38.619Z,11.24
2018-03-23T00:20:19.005Z,11.23
2018-03-23T00:20:59.403Z,11.19
2018-03-23T00:21:39.839Z,11.17
2018-03-23T00:22:20.175Z,11.2
2018-03-23T00:23:00.584Z,11.21
2018-03-23T00:23:40.963Z,11.21
2018-03-23T00:24:21.343Z,11.2
2018-03-23T00:25:01.736Z,11.13
2018-03-23T00:25:42.123Z,11.21
2018-03-23T00:26:22.557Z,11.09
2018-03-23T00:27:02.900Z,11.08
2018-03-23T00:27:43.333Z,11.08
2018-03-23T00:28:23.707Z,11.11
2018-03-23T00:29:04.450Z,11.03
2018-03-23T00:29:44.828Z,11.08
2018-03-23T00:30:25.255Z,10.94
2018-03-23T00:31:05.633Z,10.88
2018-03-23T00:31:46.052Z,10.93
2018-03-23T00:32:26.479Z,10.9
2018-03-23T00:33:06.845Z,10.81
2018-03-23T00:33:47.284Z,10.88
2018-03-23T00:34:27.594Z,10.84
2018-03-23T00:35:08.024Z,10.86
2018-03-23T00:35:48.386Z,10.84
2018-03-23T00:36:28.741Z,10.93
2018-03-23T00:37:09.158Z,10.91
2018-03-23T00:37:49.539Z,11.09
2018-03-23T00:38:29.885Z,10.99
2018-03-23T00:39:10.308Z,11.08
2018-03-23T00:39:50.678Z,11.08
2018-03-23T00:40:31.089Z,11.05
2018-03-23T00:41:11.440Z,11.09
2018-03-23T00:41:51.820Z,11.09
2018-03-23T00:42:32.256Z,11.01
2018-03-23T00:43:12.617Z,11.02
2018-03-23T00:43:53.027Z,11.05
2018-03-23T00:44:33.439Z,10.95
2018-03-23T00:45:13.770Z,11.01
2018-03-23T00:45:54.168Z,11.02
2018-03-23T00:46:34.545Z,11.02
2018-03-23T00:47:14.948Z,11.16
2018-03-23T00:47:55.318Z,11.21
2018-03-23T00:48:35.793Z,11.17
2018-03-23T00:49:16.066Z,10.98
2018-03-23T00:49:56.581Z,10.98
2018-03-23T00:50:36.922Z,11.06
2018-03-23T00:51:17.281Z,11.08
2018-03-23T00:51:57.671Z,11.06
2018-03-23T00:52:38.082Z,11.09
2018-03-23T00:53:18.487Z,11.08
2018-03-23T00:53:58.875Z,11.11
2018-03-23T00:54:39.243Z,11.08
2018-03-23T00:55:19.971Z,10.98
2018-03-23T00:56:00.867Z,11.05
2018-03-23T00:56:40.966Z,11.09
2018-03-23T00:57:21.389Z,11.08
2018-03-23T00:58:02.539Z,11.08
2018-03-23T00:58:42.140Z,11.09
2018-03-23T00:59:22.595Z,11.19
2018-03-23T01:00:02.959Z,11.08
2018-03-23T01:00:43.331Z,11.12
2018-03-23T01:01:23.727Z,10.95
2018-03-23T01:02:04.156Z,10.94
2018-03-23T01:02:44.527Z,10.94
2018-03-23T01:03:24.920Z,10.99
2018-03-23T01:04:05.327Z,10.84
2018-03-23T01:04:45.675Z,10.87
2018-03-23T01:05:26.166Z,10.87
2018-03-23T01:06:06.515Z,10.83
2018-03-23T01:06:46.921Z,10.88
2018-03-23T01:07:27.257Z,10.91
2018-03-23T01:08:07.861Z,10.91
2018-03-23T01:08:48.548Z,10.93
2018-03-23T01:09:28.822Z,10.91
2018-03-23T01:10:09.265Z,10.86
2018-03-23T01:10:49.601Z,10.94
2018-03-23T01:11:30.026Z,10.9
2018-03-23T01:12:10.389Z,10.88
2018-03-23T01:12:50.839Z,10.87
2018-03-23T01:13:31.213Z,10.88
2018-03-23T01:14:11.611Z,10.81
2018-03-23T01:14:51.947Z,10.87
2018-03-23T01:15:32.381Z,10.84
2018-03-23T01:16:12.852Z,10.86
2018-03-23T01:16:53.141Z,10.72
2018-03-23T01:17:33.635Z,10.73
2018-03-23T01:18:13.977Z,10.7
2018-03-23T01:18:54.306Z,10.73
2018-03-23T01:19:34.694Z,10.73
2018-03-23T01:20:15.153Z,10.75
2018-03-23T01:20:55.579Z,10.69
2018-03-23T01:21:35.923Z,10.72
2018-03-23T01:22:16.379Z,10.68
2018-03-23T01:22:56.668Z,10.66
2018-03-23T01:23:37.048Z,10.69
2018-03-23T01:24:17.708Z,10.72
2018-03-23T01:24:57.898Z,10.63
2018-03-23T01:25:38.288Z,10.57
2018-03-23T01:26:19.087Z,10.57
2018-03-23T01:26:59.155Z,10.6
2018-03-23T01:27:39.584Z,10.54
2018-03-23T01:28:20.058Z,10.49
2018-03-23T01:29:00.433Z,10.49
2018-03-23T01:29:40.835Z,10.49
2018-03-23T01:30:21.257Z,10.43
2018-03-23T01:31:01.599Z,10.52
2018-03-23T01:31:42.049Z,10.58
2018-03-23T01:32:22.397Z,10.42
2018-03-23T01:33:02.824Z,10.44
2018-03-23T01:33:43.251Z,10.51
2018-03-23T01:34:23.659Z,10.63
2018-03-23T01:35:04.075Z,10.63
2018-03-23T01:35:44.692Z,10.65
2018-03-23T01:36:26.235Z,10.72
2018-03-23T01:37:06.162Z,10.63
2018-03-23T01:37:46.576Z,10.63
2018-03-23T01:38:26.950Z,10.62
2018-03-23T01:39:07.312Z,10.54
2018-03-23T01:39:47.774Z,10.58
2018-03-23T01:40:28.097Z,10.6
2018-03-23T01:41:08.487Z,10.55
2018-03-23T01:41:48.920Z,10.6
2018-03-23T01:42:29.272Z,10.55
2018-03-23T01:43:09.718Z,10.69
2018-03-23T01:43:50.118Z,10.66
2018-03-23T01:44:30.535Z,10.6
2018-03-23T01:45:10.891Z,10.63
2018-03-23T01:45:51.292Z,10.73
2018-03-23T01:46:31.682Z,10.63
2018-03-23T01:47:12.027Z,10.62
2018-03-23T01:47:52.475Z,10.57
2018-03-23T01:48:32.872Z,10.66
2018-03-23T01:49:13.232Z,10.54
2018-03-23T01:49:53.644Z,10.6
2018-03-23T01:50:34.082Z,10.62
2018-03-23T01:51:14.462Z,10.57
2018-03-23T01:51:54.941Z,10.49
2018-03-23T01:52:35.357Z,10.49
2018-03-23T01:53:15.726Z,10.55
2018-03-23T01:53:56.086Z,10.54
2018-03-23T01:54:36.502Z,10.58
2018-03-23T01:55:16.920Z,10.54
2018-03-23T01:55:57.291Z,10.55
2018-03-23T01:56:37.725Z,10.57
2018-03-23T01:57:18.114Z,10.49
2018-03-23T01:57:58.483Z,10.57
2018-03-23T01:58:38.952Z,10.54
2018-03-23T01:59:19.300Z,10.47
2018-03-23T01:59:59.646Z,10.52
2018-03-23T02:00:40.032Z,10.57
2018-03-23T02:01:20.449Z,10.46
2018-03-23T02:02:00.877Z,10.43
2018-03-23T02:02:41.278Z,10.51
2018-03-23T02:03:21.689Z,10.42
2018-03-23T02:04:02.018Z,10.49
2018-03-23T02:04:42.427Z,10.43
2018-03-23T02:05:22.912Z,10.44
2018-03-23T02:06:03.262Z,10.42
2018-03-23T02:06:43.612Z,10.38
2018-03-23T02:07:24.046Z,10.49
2018-03-23T02:08:04.430Z,10.51
2018-03-23T02:08:44.861Z,10.57
2018-03-23T02:09:25.286Z,10.52
2018-03-23T02:10:05.806Z,10.54
2018-03-23T02:10:46.121Z,10.52
2018-03-23T02:11:26.497Z,10.47
2018-03-23T02:12:06.934Z,10.51
2018-03-23T02:12:47.282Z,10.44
2018-03-23T02:13:27.678Z,10.46
2018-03-23T02:14:09.528Z,10.44
2018-03-23T02:14:49.324Z,10.49
2018-03-23T02:15:29.670Z,10.39
2018-03-23T02:16:10.214Z,10.38
2018-03-23T02:16:51.801Z,10.38
2018-03-23T02:17:32.202Z,10.31
2018-03-23T02:18:12.606Z,10.44
2018-03-23T02:18:53.021Z,10.42
2018-03-23T02:19:33.476Z,10.43
2018-03-23T02:20:13.844Z,10.43
2018-03-23T02:20:54.237Z,10.49
2018-03-23T02:21:34.619Z,10.47
2018-03-23T02:22:15.015Z,10.47
2018-03-23T02:22:55.376Z,10.51
2018-03-23T02:23:35.937Z,10.54
2018-03-23T02:24:16.260Z,10.55
2018-03-23T02:24:56.636Z,10.55
2018-03-23T02:25:37.031Z,10.49
2018-03-23T02:26:17.459Z,10.46
2018-03-23T02:28:04.852Z,10.42
2018-03-23T02:28:45.466Z,10.26
2018-03-23T02:29:26.366Z,10.36
2018-03-23T02:30:06.659Z,10.34
2018-03-23T02:30:47.601Z,10.31
2018-03-23T02:31:28.060Z,10.2
2018-03-23T02:32:08.675Z,10.18
2018-03-23T02:32:49.076Z,10.2
2018-03-23T02:33:29.494Z,10.16
2018-03-23T02:34:09.942Z,10.13
2018-03-23T02:34:50.241Z,10.13
2018-03-23T02:35:30.591Z,10.2
2018-03-23T02:36:11.095Z,10.11
2018-03-23T02:36:51.502Z,10.14
2018-03-23T02:37:31.982Z,10.14
2018-03-23T02:38:12.411Z,10.2
2018-03-23T02:38:52.867Z,10.17
2018-03-23T02:39:33.058Z,10.11
2018-03-23T02:40:13.435Z,10.17
2018-03-23T02:40:53.903Z,10.25
2018-03-23T02:41:34.481Z,10.26
2018-03-23T02:42:14.840Z,10.25
2018-03-23T02:42:55.587Z,10.2
2018-03-23T02:43:35.669Z,10.32
2018-03-23T02:44:16.152Z,10.32
2018-03-23T02:44:56.527Z,10.32
2018-03-23T02:45:37.055Z,10.32
2018-03-23T02:46:17.360Z,10.38
2018-03-23T02:46:57.862Z,10.35
2018-03-23T02:47:38.293Z,10.38
2018-03-23T02:48:18.598Z,10.32
2018-03-23T02:48:59.116Z,10.34
2018-03-23T02:49:39.408Z,10.28
2018-03-23T02:50:20.061Z,10.35
2018-03-23T02:51:00.582Z,10.28
2018-03-23T02:51:40.925Z,10.28
2018-03-23T02:52:21.169Z,10.28
2018-03-23T02:53:01.602Z,10.25
2018-03-23T02:53:42.261Z,10.26
2018-03-23T02:54:22.566Z,10.29
2018-03-23T02:55:03.578Z,10.26
2018-03-23T02:55:43.355Z,10.34
2018-03-23T02:56:23.916Z,10.34
2018-03-23T02:57:04.602Z,10.28
2018-03-23T02:57:44.868Z,10.36
2018-03-23T02:58:25.173Z,10.35
2018-03-23T02:59:05.602Z,10.38
2018-03-23T02:59:46.113Z,10.35
2018-03-23T03:00:26.434Z,10.31
2018-03-23T03:01:07.082Z,10.46
2018-03-23T03:01:47.415Z,10.44
2018-03-23T03:02:27.957Z,10.47
2018-03-23T03:03:08.296Z,10.43
2018-03-23T03:03:48.659Z,10.42
2018-03-23T03:04:29.293Z,10.43
2018-03-23T03:05:09.526Z,10.44
2018-03-23T03:05:50.110Z,10.35
2018-03-23T03:06:30.502Z,10.32
2018-03-23T03:07:10.929Z,10.31
2018-03-23T03:07:52.008Z,10.35
2018-03-23T03:08:32.505Z,10.36
2018-03-23T03:09:12.906Z,10.34
2018-03-23T03:09:53.358Z,10.32
2018-03-23T03:10:33.922Z,10.31
2018-03-23T03:11:14.126Z,10.29
2018-03-23T03:11:54.546Z,10.32
2018-03-23T03:12:34.963Z,10.34
2018-03-23T03:13:15.344Z,10.31
2018-03-23T03:13:56.081Z,10.36
2018-03-23T03:14:36.409Z,10.36
2018-03-23T03:15:16.776Z,10.34
2018-03-23T03:15:57.637Z,10.36
2018-03-23T03:16:38.379Z,10.39
2018-03-23T03:17:19.045Z,10.36
2018-03-23T03:17:59.385Z,10.36
2018-03-23T03:18:39.686Z,10.34
2018-03-23T03:19:20.129Z,10.36
2018-03-23T03:20:00.546Z,10.29
2018-03-23T03:20:40.901Z,10.29
2018-03-23T03:21:21.435Z,10.29
2018-03-23T03:22:01.838Z,10.34
2018-03-23T03:22:42.533Z,10.22
2018-03-23T03:23:22.706Z,10.25
2018-03-23T03:24:03.724Z,10.24
2018-03-23T03:24:44.327Z,10.17
2018-03-23T03:25:24.753Z,10.18
2018-03-23T03:26:05.319Z,10.17
2018-03-23T03:26:45.718Z,10.26
2018-03-23T03:27:26.388Z,10.25
2018-03-23T03:28:06.612Z,10.24
2018-03-23T03:28:47.085Z,10.24
2018-03-23T03:29:27.555Z,10.13
2018-03-23T03:30:08.321Z,10.02
2018-03-23T03:30:48.933Z,10.07
2018-03-23T03:31:29.422Z,9.98
2018-03-23T03:32:10.805Z,9.96
2018-03-23T03:32:51.558Z,10.09
2018-03-23T03:33:33.706Z,9.92
2018-03-23T03:34:14.078Z,9.89
2018-03-23T03:34:54.554Z,9.83
2018-03-23T03:35:36.891Z,9.75
2018-03-23T03:36:16.924Z,9.73
2018-03-23T03:36:57.290Z,9.71
2018-03-23T03:37:37.606Z,9.71
2018-03-23T03:38:18.299Z,9.77
2018-03-23T03:40:39.553Z,9.7
2018-03-23T03:42:14.652Z,9.75
2018-03-23T03:44:31.221Z,9.73
2018-03-23T03:45:11.714Z,9.6
2018-03-23T03:45:52.371Z,9.63
2018-03-23T03:46:32.743Z,9.6
2018-03-23T03:47:13.107Z,9.53
2018-03-23T03:47:53.767Z,9.55
2018-03-23T03:48:34.032Z,9.63
2018-03-23T03:49:14.393Z,9.55
2018-03-23T03:49:54.829Z,9.59
2018-03-23T03:50:35.281Z,9.6
2018-03-23T03:51:15.635Z,9.77
2018-03-23T03:51:56.051Z,9.81
2018-03-23T03:52:36.548Z,9.91
2018-03-23T03:53:16.866Z,9.73
2018-03-23T03:53:57.441Z,9.81
2018-03-23T03:54:38.602Z,9.77
2018-03-23T03:55:19.429Z,9.77
2018-03-23T03:55:59.975Z,9.68
2018-03-23T03:56:40.359Z,9.74
2018-03-23T03:57:20.793Z,9.73
2018-03-23T03:58:01.716Z,9.75
2018-03-23T03:58:42.174Z,9.77
2018-03-23T03:59:22.735Z,9.75
2018-03-23T04:00:03.116Z,9.8
2018-03-23T04:00:43.564Z,9.8
2018-03-23T04:01:23.990Z,9.88
2018-03-23T04:02:05.137Z,9.89
2018-03-23T04:02:47.081Z,9.91
2018-03-23T04:03:27.520Z,9.88
2018-03-23T04:04:07.861Z,9.89
2018-03-23T04:04:48.905Z,9.89
2018-03-23T04:05:29.153Z,9.86
2018-03-23T04:06:11.077Z,9.78
2018-03-23T04:06:50.441Z,9.93
2018-03-23T04:07:30.761Z,9.93
2018-03-23T04:08:11.179Z,9.85
2018-03-23T04:45:54.790Z,9.1
2018-03-23T04:46:33.336Z,8.94
2018-03-23T04:47:15.792Z,8.94
2018-03-23T04:47:55.862Z,8.96
2018-03-23T04:48:35.700Z,8.94
2018-03-23T04:49:16.204Z,9
2018-03-23T04:49:56.551Z,8.89
2018-03-23T04:50:36.911Z,8.86
2018-03-23T04:51:17.234Z,8.78
2018-03-23T04:51:57.862Z,8.68
2018-03-23T04:52:38.188Z,8.71
2018-03-23T04:53:18.584Z,8.73
2018-03-23T04:53:59.002Z,8.73
2018-03-23T04:54:39.385Z,8.7
2018-03-23T04:55:19.740Z,8.91
2018-03-23T04:56:00.162Z,8.85
2018-03-23T04:56:40.528Z,8.89
2018-03-23T04:57:20.988Z,8.89
2018-03-23T04:58:01.302Z,8.86
2018-03-23T04:58:41.773Z,8.91
2018-03-23T04:59:22.371Z,8.86
2018-03-23T05:00:02.910Z,8.93
2018-03-23T05:00:43.539Z,8.94
2018-03-23T05:01:24.615Z,8.97
2018-03-23T05:02:04.846Z,8.98
2018-03-23T05:02:45.304Z,9.06
2018-03-23T05:03:25.693Z,9.22
2018-03-23T05:04:06.114Z,9.16
2018-03-23T05:04:46.473Z,9.2
2018-03-23T05:05:26.895Z,9.32
2018-03-23T05:06:07.240Z,9.22
2018-03-23T05:06:47.635Z,9.35
2018-03-23T05:07:28.039Z,9.24
2018-03-23T05:08:08.437Z,9.44
2018-03-23T05:08:48.915Z,9.42
2018-03-23T05:09:29.262Z,9.41
2018-03-23T05:10:09.640Z,9.44
2018-03-23T05:10:50.563Z,9.41
2018-03-23T05:11:32.322Z,9.38
2018-03-23T05:12:12.310Z,9.4
2018-03-23T05:12:52.796Z,9.42
2018-03-23T05:13:33.973Z,9.42
2018-03-23T05:14:14.422Z,9.56
2018-03-23T05:14:54.756Z,9.52
2018-03-23T05:15:35.147Z,9.63
2018-03-23T05:16:15.849Z,9.62
2018-03-23T05:16:55.975Z,9.7
2018-03-23T05:17:36.315Z,9.68
2018-03-23T05:18:18.447Z,9.68
2018-03-23T05:18:57.975Z,9.74
2018-03-23T05:19:38.325Z,9.71
2018-03-23T05:20:18.786Z,9.71
2018-03-23T05:20:59.235Z,9.6
2018-03-23T05:21:39.590Z,9.6
2018-03-23T05:22:20.748Z,9.59
2018-03-23T05:23:01.751Z,9.52
2018-03-23T05:23:42.127Z,9.58
2018-03-23T05:24:22.762Z,9.63
2018-03-23T05:25:03.121Z,9.62
2018-03-23T05:25:43.414Z,9.65
2018-03-23T05:26:23.943Z,9.62
2018-03-23T05:27:04.271Z,9.74
2018-03-23T05:27:45.701Z,9.71
2018-03-23T05:28:26.339Z,9.68
2018-03-23T05:29:06.725Z,9.83
2018-03-23T05:29:47.466Z,9.83
2018-03-23T05:30:28.153Z,9.81
2018-03-23T05:31:08.915Z,9.73
2018-03-23T05:31:49.407Z,9.73
2018-03-23T05:32:30.822Z,9.8
2018-03-23T05:33:13.199Z,9.78
2018-03-23T05:33:53.677Z,9.8
2018-03-23T05:34:34.532Z,9.8
2018-03-23T05:35:15.465Z,9.77
2018-03-23T05:35:56.421Z,9.74
2018-03-23T05:36:36.838Z,9.77
2018-03-23T05:37:17.172Z,9.85
2018-03-23T05:37:57.544Z,9.78
2018-03-23T05:38:38.323Z,9.78
2018-03-23T05:39:21.923Z,9.89
2018-03-23T05:40:01.063Z,9.89
2018-03-23T05:40:45.226Z,9.77
2018-03-23T05:41:25.335Z,9.83
2018-03-23T05:42:05.706Z,9.74
2018-03-23T05:42:48.464Z,9.7
2018-03-23T05:43:29.424Z,9.65
2018-03-23T05:44:10.967Z,9.81
2018-03-23T05:44:51.554Z,9.74
2018-03-23T05:45:32.695Z,9.75
2018-03-23T05:46:13.696Z,9.75
2018-03-23T05:46:54.045Z,9.74
2018-03-23T05:47:34.499Z,9.88
2018-03-23T05:48:17.834Z,9.91
2018-03-23T05:48:58.105Z,9.95
2018-03-23T05:49:39.891Z,9.89
2018-03-23T05:50:20.061Z,9.93
2018-03-23T05:51:00.457Z,9.99
2018-03-23T05:51:42.402Z,9.98
2018-03-23T05:52:23.215Z,10.02
2018-03-23T05:53:04.284Z,10.04
2018-03-23T05:53:44.826Z,10.01
2018-03-23T05:54:25.006Z,9.96
2018-03-23T05:55:05.922Z,10.01
2018-03-23T05:55:49.274Z,9.85
2018-03-23T05:56:28.430Z,9.96
2018-03-23T05:57:10.549Z,9.93
2018-03-23T05:57:49.731Z,9.91
2018-03-23T05:58:30.047Z,9.91
2018-03-23T05:59:10.591Z,9.93
2018-03-23T05:59:50.902Z,9.99
2018-03-23T06:00:32.002Z,9.93
2018-03-23T06:01:15.068Z,9.78
2018-03-23T06:01:56.057Z,9.85
2018-03-23T06:02:36.519Z,9.78
2018-03-23T06:04:12.422Z,10.01
2018-03-23T06:04:52.802Z,9.98
2018-03-23T06:05:33.421Z,9.89
2018-03-23T06:06:14.482Z,9.93
2018-03-23T06:06:54.681Z,9.86
2018-03-23T06:07:35.143Z,10.09
2018-03-23T06:08:15.705Z,9.93
2018-03-23T06:08:56.146Z,10.02
2018-03-23T06:09:37.240Z,10.02
2018-03-23T06:10:17.641Z,10.01
2018-03-23T06:10:57.983Z,10.01
2018-03-23T06:11:38.410Z,9.96
2018-03-23T06:12:20.568Z,9.88
2018-03-23T06:13:00.958Z,9.93
2018-03-23T06:13:41.518Z,9.86
2018-03-23T06:14:27.284Z,9.91
2018-03-23T06:15:04.706Z,9.77
2018-03-23T06:15:45.149Z,9.77
2018-03-23T06:16:27.212Z,9.83
2018-03-23T06:17:06.671Z,9.83
2018-03-23T06:17:47.494Z,9.8
2018-03-23T06:18:28.037Z,9.77
2018-03-23T06:19:08.473Z,9.86
2018-03-23T06:19:48.830Z,9.88
2018-03-23T06:20:29.290Z,9.86
2018-03-23T06:21:09.662Z,9.85
2018-03-23T06:21:50.060Z,9.78
2018-03-23T06:22:30.775Z,9.74
2018-03-23T06:23:11.141Z,9.71
2018-03-23T06:23:51.678Z,9.81
2018-03-23T06:24:32.010Z,9.75
2018-03-23T06:25:12.642Z,9.67
2018-03-23T06:25:52.978Z,9.78
2018-03-23T06:26:33.436Z,9.78
2018-03-23T06:27:13.733Z,9.81
2018-03-23T06:27:54.131Z,9.86
2018-03-23T06:28:34.548Z,9.78
2018-03-23T06:29:15.897Z,9.65
2018-03-23T06:29:57.343Z,9.74
2018-03-23T06:30:37.389Z,9.67
2018-03-23T06:31:17.631Z,9.68
2018-03-23T06:31:58.729Z,9.68
2018-03-23T06:32:40.740Z,9.68
2018-03-23T06:33:23.026Z,9.71
2018-03-23T06:34:03.695Z,9.8
2018-03-23T06:34:43.815Z,9.68
2018-03-23T06:35:24.223Z,9.78
2018-03-23T06:36:04.906Z,9.78
2018-03-23T06:36:45.391Z,9.81
2018-03-23T06:37:25.853Z,9.73
2018-03-23T06:38:07.354Z,9.77
2018-03-23T06:38:48.747Z,9.77
2018-03-23T06:39:28.842Z,9.83
2018-03-23T06:40:09.779Z,9.8
2018-03-23T06:40:49.944Z,9.75
2018-03-23T06:41:30.265Z,9.91
2018-03-23T06:42:10.721Z,9.77
2018-03-23T06:42:51.114Z,9.91
2018-03-23T06:43:31.469Z,9.83
2018-03-23T06:44:11.968Z,9.93
2018-03-23T06:44:52.272Z,9.98
2018-03-23T06:45:32.699Z,9.93
2018-03-23T06:46:13.123Z,9.95
2018-03-23T06:46:53.576Z,9.98
2018-03-23T06:47:33.929Z,9.99
2018-03-23T06:48:14.328Z,9.96
2018-03-23T06:48:56.371Z,9.99
2018-03-23T06:49:37.149Z,9.88
2018-03-23T06:50:17.624Z,9.86
2018-03-23T06:50:58.012Z,9.86
2018-03-23T06:51:38.497Z,9.96
2018-03-23T06:52:19.490Z,9.96
2018-03-23T06:53:02.742Z,9.88
2018-03-23T06:53:42.739Z,9.96
2018-03-23T06:54:24.053Z,9.93
2018-03-23T06:55:04.301Z,9.98
2018-03-23T06:55:45.565Z,10.01
2018-03-23T06:56:26.219Z,9.92
2018-03-23T06:57:07.524Z,9.89
2018-03-23T06:57:47.874Z,9.92
2018-03-23T06:58:28.534Z,9.92
2018-03-23T06:59:09.287Z,9.85
2018-03-23T06:59:50.017Z,9.88
2018-03-23T07:00:31.503Z,9.74
2018-03-23T07:01:12.735Z,9.75
2018-03-23T07:01:53.074Z,9.74
2018-03-23T07:02:33.348Z,9.91
2018-03-23T07:03:14.707Z,9.89
2018-03-23T07:03:56.055Z,9.8
2018-03-23T07:04:36.627Z,9.78
2018-03-23T07:05:16.955Z,9.77
2018-03-23T07:05:57.412Z,9.83
2018-03-23T07:06:38.222Z,9.89
2018-03-23T07:07:18.282Z,9.95
2018-03-23T07:07:58.749Z,9.89
2018-03-23T07:08:39.093Z,9.95
2018-03-23T07:09:19.653Z,9.99
2018-03-23T07:10:00.383Z,10.09
2018-03-23T07:10:40.795Z,9.93
2018-03-23T07:11:23.515Z,9.86
2018-03-23T07:12:03.840Z,9.98
2018-03-23T07:12:44.468Z,9.99
2018-03-23T07:13:24.821Z,10.13
2018-03-23T07:14:06.462Z,10.11
2018-03-23T07:14:47.163Z,10.17
2018-03-23T07:15:28.863Z,10.22
2018-03-23T07:17:12.170Z,10.29
2018-03-23T07:18:51.646Z,10.46
2018-03-23T07:19:38.685Z,10.55
2018-03-23T07:20:24.791Z,10.58
2018-03-23T07:21:05.231Z,10.58
2018-03-23T07:22:02.311Z,10.66
2018-03-23T07:24:50.309Z,10.78
2018-03-23T07:25:48.791Z,10.72
2018-03-23T07:29:37.207Z,10.7
2018-03-23T07:30:17.968Z,10.6
2018-03-23T07:30:58.440Z,10.58
2018-03-23T07:31:39.175Z,10.69
2018-03-23T07:32:19.840Z,10.65
2018-03-23T07:33:00.320Z,10.66
2018-03-23T07:33:40.724Z,10.63
2018-03-23T07:34:21.174Z,10.51
2018-03-23T07:35:01.773Z,10.51
2018-03-23T07:35:42.282Z,10.49
2018-03-23T07:36:23.173Z,10.42
2018-03-23T07:37:04.497Z,10.29
2018-03-23T07:37:47.630Z,10.32
2018-03-23T07:38:28.720Z,10.35
2018-03-23T07:39:08.766Z,10.28
2018-03-23T07:39:49.263Z,10.29
2018-03-23T07:40:29.819Z,10.22
2018-03-23T07:41:10.338Z,10.29
2018-03-23T07:41:51.064Z,10.25
2018-03-23T07:42:31.527Z,10.25
2018-03-23T07:43:47.032Z,10.22
2018-03-23T07:44:31.354Z,10.22
2018-03-23T07:45:12.085Z,10.36
2018-03-23T07:45:53.551Z,10.32
2018-03-23T07:46:34.294Z,10.44
2018-03-23T07:47:14.703Z,10.6
2018-03-23T07:47:56.337Z,10.65
2018-03-23T07:48:37.079Z,10.63
2018-03-23T07:49:17.641Z,10.72
2018-03-23T07:49:58.107Z,10.75
2018-03-23T07:50:38.397Z,10.72
2018-03-23T07:51:19.021Z,10.54
2018-03-23T07:52:04.440Z,10.39
2018-03-23T07:52:45.061Z,10.43
2018-03-23T07:53:25.761Z,10.49
2018-03-23T07:54:06.827Z,10.43
2018-03-23T07:54:47.542Z,10.46
2018-03-23T07:55:28.496Z,10.63
2018-03-23T07:56:09.062Z,10.72
2018-03-23T07:56:50.076Z,10.7
2018-03-23T07:57:30.716Z,10.72
2018-03-23T07:58:11.924Z,10.83
2018-03-23T07:58:52.278Z,10.86
2018-03-23T07:59:34.137Z,10.86
2018-03-23T08:00:15.929Z,10.91
2018-03-23T08:00:57.476Z,11.01
2018-03-23T08:01:38.961Z,10.87
2018-03-23T08:02:20.748Z,10.91
2018-03-23T08:03:01.141Z,10.88
2018-03-23T08:03:41.860Z,10.93
2018-03-23T08:04:23.301Z,11.06
2018-03-23T08:05:04.110Z,11.06
2018-03-23T08:05:48.453Z,11.09
2018-03-23T08:06:31.562Z,11.08
2018-03-23T08:07:12.499Z,11.2
2018-03-23T08:07:52.860Z,11.23
2018-03-23T08:08:33.482Z,11.23
2018-03-23T08:09:14.418Z,11.24
2018-03-23T08:09:54.941Z,11.24
2018-03-23T08:10:38.393Z,11.33
2018-03-23T08:11:19.579Z,11.33
2018-03-23T08:13:36.168Z,11.56
2018-03-23T08:14:15.604Z,11.53
2018-03-23T08:14:56.147Z,11.6
2018-03-23T08:15:36.878Z,11.64
2018-03-23T08:16:23.411Z,11.75
2018-03-23T08:17:03.818Z,11.85
2018-03-23T08:17:44.384Z,11.9
2018-03-23T08:18:28.242Z,11.97
2018-03-23T08:19:13.208Z,12.01
2018-03-23T08:19:55.037Z,12.07
2018-03-23T08:20:35.714Z,12.15
2018-03-23T08:21:16.224Z,12.25
2018-03-23T08:21:58.042Z,12.4
2018-03-23T08:23:46.029Z,12.77
2018-03-23T08:28:55.473Z,13.53
2018-03-23T08:32:35.162Z,13.93
2018-03-23T08:33:17.252Z,13.88
2018-03-23T08:36:11.919Z,14.31
2018-03-23T08:40:32.639Z,15.96
2018-03-23T08:45:23.091Z,16.78
2018-03-23T08:49:08.917Z,16.23
2018-03-23T08:49:49.228Z,16.25
2018-03-23T08:50:30.208Z,16.26
2018-03-23T08:51:17.876Z,16.3
2018-03-23T08:52:01.013Z,16.3
2018-03-23T08:52:41.550Z,16.36
2018-03-23T08:53:22.429Z,16.4
2018-03-23T08:54:02.878Z,16.41
2018-03-23T08:54:43.489Z,16.4
2018-03-23T08:55:24.590Z,16.51
2018-03-23T08:56:05.004Z,16.5
2018-03-23T08:56:46.869Z,16.51
2018-03-23T08:57:28.532Z,16.47
2018-03-23T08:58:08.833Z,16.51
2018-03-23T08:58:49.180Z,16.5
2018-03-23T08:59:29.858Z,16.44
2018-03-23T09:00:10.648Z,16.37
2018-03-23T09:00:51.957Z,16.42
2018-03-23T09:01:33.168Z,16.37
2018-03-23T09:02:13.486Z,16.36
2018-03-23T09:02:54.629Z,16.36
2018-03-23T09:03:34.932Z,16.4
2018-03-23T09:04:17.213Z,16.18
2018-03-23T09:04:57.976Z,16.18
2018-03-23T09:05:38.983Z,16.08
2018-03-23T09:06:21.716Z,15.71
2018-03-23T09:07:01.866Z,15.66
2018-03-23T09:07:44.720Z,15.56
2018-03-23T09:08:25.351Z,15.46
2018-03-23T09:09:05.891Z,15.44
2018-03-23T09:09:46.325Z,15.3
2018-03-23T09:10:28.112Z,15.34
2018-03-23T09:11:08.631Z,15.15
2018-03-23T09:11:50.191Z,14.97
2018-03-23T09:12:30.378Z,14.87
2018-03-23T09:13:10.775Z,14.72
2018-03-23T09:13:51.311Z,14.64
2018-03-23T09:14:31.885Z,14.61
2018-03-23T09:15:12.750Z,14.72
2018-03-23T09:15:53.524Z,14.67
2018-03-23T09:16:35.457Z,14.61
2018-03-23T09:17:15.892Z,14.61
2018-03-23T09:17:56.304Z,14.59
2018-03-23T09:18:37.186Z,14.56
2018-03-23T09:19:17.612Z,14.41
2018-03-23T09:19:58.582Z,14.41
2018-03-23T09:20:40.681Z,14.44
2018-03-23T09:21:21.449Z,14.42
2018-03-23T09:22:01.940Z,14.41
2018-03-23T09:22:42.451Z,14.27
2018-03-23T09:23:23.033Z,14.29
2018-03-23T09:24:03.248Z,14.31
2018-03-23T09:24:44.672Z,14.17
2018-03-23T09:25:25.516Z,14.29
2018-03-23T09:26:06.511Z,14.34
2018-03-23T09:26:47.295Z,14.29
2018-03-23T09:27:28.166Z,14.27
2018-03-23T09:28:08.704Z,14.2
2018-03-23T09:28:49.459Z,14.11
2018-03-23T09:29:29.693Z,14.24
2018-03-23T09:30:10.072Z,14.12
2018-03-23T09:30:50.740Z,14.17
2018-03-23T09:31:31.590Z,14.13
2018-03-23T09:32:11.893Z,14.16
2018-03-23T09:32:52.361Z,14.16
2018-03-23T09:33:34.530Z,14.16
2018-03-23T09:34:14.892Z,14.31
2018-03-23T09:34:55.390Z,14.29
2018-03-23T09:35:35.934Z,14.38
2018-03-23T09:36:17.725Z,14.42
2018-03-23T09:37:00.522Z,14.46
2018-03-23T09:37:42.817Z,14.48
2018-03-23T09:38:25.513Z,14.56
2018-03-23T09:39:06.247Z,14.64
2018-03-23T09:39:48.874Z,14.74
2018-03-23T09:40:32.504Z,14.78
2018-03-23T09:41:15.801Z,14.93
2018-03-23T09:41:57.998Z,15.01
2018-03-23T09:42:39.982Z,14.97
2018-03-23T09:43:20.389Z,14.95
2018-03-23T09:44:02.451Z,15.07
2018-03-23T09:44:45.415Z,15.09
2018-03-23T09:45:25.756Z,15.15
2018-03-23T09:46:06.974Z,15.16
2018-03-23T09:46:48.600Z,15.11
2018-03-23T09:47:29.881Z,15.22
2018-03-23T09:48:11.400Z,15.2
2018-03-23T09:48:53.130Z,15.23
2018-03-23T09:49:33.191Z,15.25
2018-03-23T09:50:13.659Z,15.03
2018-03-23T09:50:54.007Z,14.72
2018-03-23T09:51:34.396Z,14.78
2018-03-23T09:52:14.858Z,14.8
2018-03-23T09:52:55.350Z,14.83
2018-03-23T09:53:36.290Z,14.93
2018-03-23T09:54:16.883Z,14.79
2018-03-23T09:54:57.187Z,14.91
2018-03-23T09:55:37.639Z,14.85
2018-03-23T09:56:18.252Z,14.82
2018-03-23T09:56:59.460Z,14.82
2018-03-23T09:57:39.904Z,14.74
2018-03-23T09:58:20.365Z,14.74
2018-03-23T09:59:01.182Z,14.75
2018-03-23T09:59:41.831Z,14.64
2018-03-23T10:00:22.320Z,14.74
2018-03-23T10:01:05.570Z,14.66
2018-03-23T10:01:46.705Z,14.63
2018-03-23T10:02:28.951Z,14.63
2018-03-23T10:03:11.716Z,14.63
2018-03-23T10:03:53.460Z,14.72
2018-03-23T10:04:34.204Z,14.79
2018-03-23T10:05:15.030Z,14.75
2018-03-23T10:05:57.443Z,14.8